Terminal Aerodrome Forecast
Issued by NWS

Home | Current Version | Previous Version | Graphics & Text | Print | Product List | Glossary On
Versions: 1 2 3 4 5 6 7 8 9 10 11 12 13 14 15 16
000
FTUS43 KGRB 271100
TAFCWA
TAF
KCWA 271132Z 2712/2812 10004KT P6SM SCT060
      TEMPO 2712/2714 2SM BR
     FM271500 18005KT P6SM SCT150
     FM280500 00000KT 6SM BR SKC
      TEMPO 2808/2812 1/2SM FG VV002=

USA.gov is the U.S. government's official web portal to all federal, state and local government web resources and services.